Time;durP1;ratioP1;P1;durP2;ratioP2;P2;SDS_P1;SDS_P2;PMS_P1;PMS_P2;Temp;Humidity;BMP_temperature;BMP_pressure;BME280_temperature;BME280_humidity;BME280_pressure;Samples;Min_cycle;Max_cycle;Signal;HPM_P1;HPM_P2
2023/04/13 00:01:27;;;;;;;36.38;22.85;;;;;;;;;;6218835;28;20125;-80
2023/04/13 00:04:30;;;;;;;37.10;23.50;;;;;;;;;;6218206;28;20109;-79
2023/04/13 00:07:33;;;;;;;38.63;23.98;;;;;;;;;;6221964;28;20511;-81
2023/04/13 00:10:35;;;;;;;32.55;23.05;;;;;;;;;;6220891;28;20113;-79
2023/04/13 00:13:39;;;;;;;35.42;23.65;;;;;;;;;;6223179;28;20859;-80
2023/04/13 00:16:41;;;;;;;38.58;24.77;;;;;;;;;;6214797;28;20322;-79
2023/04/13 00:19:46;;;;;;;32.72;22.33;;;;;;;;;;6216762;28;20301;-81
2023/04/13 00:22:50;;;;;;;38.28;24.00;;;;;;;;;;6219276;28;20058;-82
2023/04/13 00:25:52;;;;;;;35.35;23.05;;;;;;;;;;6219315;28;20069;-80
2023/04/13 00:28:54;;;;;;;37.78;25.67;;;;;;;;;;6217267;28;20373;-82
2023/04/13 00:31:56;;;;;;;37.50;25.58;;;;;;;;;;6219936;28;20057;-80
2023/04/13 00:34:58;;;;;;;37.83;25.33;;;;;;;;;;6220796;28;20110;-80
2023/04/13 00:38:03;;;;;;;34.47;23.83;;;;;;;;;;6218844;28;20089;-80
2023/04/13 00:41:05;;;;;;;39.47;24.92;;;;;;;;;;6219768;28;20351;-80
2023/04/13 00:44:08;;;;;;;38.30;25.48;;;;;;;;;;6218545;28;20060;-79
2023/04/13 00:47:11;;;;;;;41.38;26.48;;;;;;;;;;6219912;28;20134;-79
2023/04/13 00:50:13;;;;;;;38.58;25.33;;;;;;;;;;6209519;28;20313;-79
2023/04/13 00:53:17;;;;;;;37.25;25.02;;;;;;;;;;6210443;28;20049;-81
2023/04/13 00:56:21;;;;;;;36.55;24.65;;;;;;;;;;6197033;28;20050;-81
2023/04/13 00:59:23;;;;;;;36.40;25.23;;;;;;;;;;6204604;28;20325;-79
2023/04/13 01:02:29;;;;;;;38.47;25.33;;;;;;;;;;6209458;28;20273;-79
2023/04/13 01:05:33;;;;;;;38.88;24.88;;;;;;;;;;6205595;28;20057;-78
2023/04/13 01:08:39;;;;;;;35.00;23.42;;;;;;;;;;6204608;28;20061;-79
2023/04/13 01:11:44;;;;;;;34.33;23.60;;;;;;;;;;6208569;28;20125;-80
2023/04/13 01:14:51;;;;;;;30.55;22.55;;;;;;;;;;6204300;28;20059;-81
2023/04/13 01:17:57;;;;;;;34.53;23.20;;;;;;;;;;6203586;28;21375;-80
2023/04/13 01:21:00;;;;;;;32.70;22.15;;;;;;;;;;6205882;28;20277;-79
2023/04/13 01:24:16;;;;;;;36.05;23.00;;;;;;;;;;6208556;28;20046;-81
2023/04/13 01:27:24;;;;;;;37.25;24.25;;;;;;;;;;6204495;28;20045;-80
2023/04/13 01:30:28;;;;;;;39.25;24.23;;;;;;;;;;6202891;28;20046;-79
2023/04/13 01:33:32;;;;;;;37.83;24.92;;;;;;;;;;6204344;28;20065;-81
2023/04/13 01:36:34;;;;;;;37.35;25.15;;;;;;;;;;6204230;28;20116;-80
2023/04/13 01:39:37;;;;;;;37.38;24.85;;;;;;;;;;6207392;28;20053;-80
2023/04/13 01:42:39;;;;;;;35.20;23.57;;;;;;;;;;6205856;28;20046;-80
2023/04/13 01:45:46;;;;;;;39.30;25.48;;;;;;;;;;6211270;28;20484;-81
2023/04/13 01:48:50;;;;;;;39.60;25.17;;;;;;;;;;6209405;28;20054;-80
2023/04/13 01:51:57;;;;;;;37.53;25.40;;;;;;;;;;6211204;28;20053;-79
2023/04/13 01:55:00;;;;;;;36.70;25.35;;;;;;;;;;6209213;28;20065;-80
2023/04/13 01:58:03;;;;;;;39.40;25.67;;;;;;;;;;6211061;28;20137;-81
2023/04/13 02:01:07;;;;;;;37.95;24.83;;;;;;;;;;6213315;28;20333;-81
2023/04/13 02:04:09;;;;;;;;;;;;;;;;;;6211942;28;20117;-79
2023/04/13 02:07:11;;;;;;;38.22;24.63;;;;;;;;;;6213205;28;20806;-80
2023/04/13 02:10:12;;;;;;;39.97;24.33;;;;;;;;;;6207795;28;20065;-79
2023/04/13 02:13:14;;;;;;;40.65;25.55;;;;;;;;;;6206491;28;20053;-79
2023/04/13 02:16:18;;;;;;;39.28;26.02;;;;;;;;;;6213235;28;20045;-79
2023/04/13 02:19:20;;;;;;;40.23;25.17;;;;;;;;;;6210853;28;20073;-79
2023/04/13 02:22:22;;;;;;;36.25;23.63;;;;;;;;;;6206306;28;20053;-80
2023/04/13 02:25:24;;;;;;;36.13;23.67;;;;;;;;;;6211462;28;20058;-80
2023/04/13 02:28:26;;;;;;;36.63;24.42;;;;;;;;;;6211806;28;20241;-79
2023/04/13 02:31:30;;;;;;;33.78;23.25;;;;;;;;;;6209512;28;20065;-80
2023/04/13 02:34:32;;;;;;;;;;;;;;;;;;6210352;28;20453;-79
2023/04/13 02:37:38;;;;;;;32.90;22.63;;;;;;;;;;6211374;28;19952;-79
2023/04/13 02:40:41;;;;;;;34.60;23.73;;;;;;;;;;6207611;28;20198;-79
2023/04/13 02:43:43;;;;;;;34.65;22.85;;;;;;;;;;6210045;28;20050;-79
2023/04/13 02:46:46;;;;;;;36.25;24.00;;;;;;;;;;6211225;28;20488;-79
2023/04/13 02:49:48;;;;;;;35.30;23.67;;;;;;;;;;6211177;28;20129;-79
2023/04/13 02:52:50;;;;;;;35.53;23.55;;;;;;;;;;6205212;28;20466;-79
2023/04/13 02:55:52;;;;;;;37.45;25.15;;;;;;;;;;6210327;28;20687;-80
2023/04/13 02:58:54;;;;;;;38.63;24.58;;;;;;;;;;6207805;28;20237;-80
2023/04/13 03:01:58;;;;;;;38.83;25.77;;;;;;;;;;6211506;28;20054;-80
2023/04/13 03:05:01;;;;;;;35.03;23.95;;;;;;;;;;6206722;28;20054;-79
2023/04/13 03:08:04;;;;;;;39.33;23.83;;;;;;;;;;6212428;28;20117;-79
2023/04/13 03:11:08;;;;;;;37.88;23.77;;;;;;;;;;6207624;28;20332;-79
2023/04/13 03:14:11;;;;;;;;;;;;;;;;;;6210047;28;20053;-80
2023/04/13 03:17:15;;;;;;;34.30;23.27;;;;;;;;;;6206715;28;20004;-79
2023/04/13 03:20:19;;;;;;;33.72;22.90;;;;;;;;;;6207215;28;20061;-79
2023/04/13 03:23:21;;;;;;;34.67;23.33;;;;;;;;;;6205133;28;20236;-79
2023/04/13 03:26:23;;;;;;;38.38;23.92;;;;;;;;;;6205579;28;20061;-79
2023/04/13 03:29:25;;;;;;;33.85;21.98;;;;;;;;;;6209890;28;20050;-78
2023/04/13 03:32:28;;;;;;;33.58;23.20;;;;;;;;;;6209331;28;20054;-79
2023/04/13 03:35:30;;;;;;;37.45;24.83;;;;;;;;;;6207151;28;20095;-79
2023/04/13 03:38:31;;;;;;;35.60;24.25;;;;;;;;;;6209983;28;20137;-79
2023/04/13 03:41:33;;;;;;;37.10;23.25;;;;;;;;;;6209094;28;20065;-80
2023/04/13 03:44:35;;;;;;;35.83;23.17;;;;;;;;;;6207382;28;20088;-79
2023/04/13 03:47:38;;;;;;;33.33;23.45;;;;;;;;;;6208685;28;20054;-80
2023/04/13 03:50:40;;;;;;;35.38;23.10;;;;;;;;;;6207707;28;20061;-80
2023/04/13 03:53:42;;;;;;;36.30;23.35;;;;;;;;;;6208103;28;20053;-79
2023/04/13 03:56:43;;;;;;;34.72;23.88;;;;;;;;;;6206301;28;20045;-79
2023/04/13 03:59:45;;;;;;;34.85;22.45;;;;;;;;;;6206418;28;20061;-79
2023/04/13 04:02:48;;;;;;;35.60;23.58;;;;;;;;;;6204467;28;20301;-79
2023/04/13 04:05:50;;;;;;;35.17;21.80;;;;;;;;;;6204169;28;20057;-79
2023/04/13 04:08:51;;;;;;;32.67;22.58;;;;;;;;;;6205295;28;20104;-79
2023/04/13 04:11:53;;;;;;;34.75;23.27;;;;;;;;;;6208140;28;20057;-79
2023/04/13 04:14:55;;;;;;;36.70;23.38;;;;;;;;;;6207306;28;20057;-80
2023/04/13 04:17:59;;;;;;;36.47;22.48;;;;;;;;;;6207198;28;20065;-80
2023/04/13 04:21:01;;;;;;;36.08;23.85;;;;;;;;;;6208961;28;20050;-79
2023/04/13 04:24:05;;;;;;;37.60;24.65;;;;;;;;;;6205721;28;20233;-77
2023/04/13 04:27:06;;;;;;;37.05;23.83;;;;;;;;;;6208413;28;20233;-79
2023/04/13 04:30:09;;;;;;;36.03;24.05;;;;;;;;;;6208148;28;20046;-80
2023/04/13 04:33:13;;;;;;;33.83;23.70;;;;;;;;;;6205243;28;20114;-79
2023/04/13 04:36:15;;;;;;;37.63;24.08;;;;;;;;;;6208598;28;20092;-79
2023/04/13 04:39:21;;;;;;;36.58;23.75;;;;;;;;;;6207229;28;20234;-79
2023/04/13 04:42:22;;;;;;;40.20;25.35;;;;;;;;;;6211168;28;20325;-79
2023/04/13 04:45:26;;;;;;;37.97;24.50;;;;;;;;;;6212382;28;20092;-79
2023/04/13 04:48:30;;;;;;;34.78;23.73;;;;;;;;;;6209067;28;20046;-79
2023/04/13 04:51:32;;;;;;;;;;;;;;;;;;6210058;28;20281;-79
2023/04/13 04:54:33;;;;;;;33.53;23.15;;;;;;;;;;6205652;28;20210;-79
2023/04/13 04:57:35;;;;;;;34.67;24.08;;;;;;;;;;6203813;28;20109;-79
2023/04/13 05:00:37;;;;;;;37.63;23.35;;;;;;;;;;6204628;28;20053;-79
2023/04/13 05:03:41;;;;;;;38.25;24.63;;;;;;;;;;6210916;28;20100;-80
2023/04/13 05:06:43;;;;;;;37.42;24.75;;;;;;;;;;6208184;28;20057;-79
2023/04/13 05:09:45;;;;;;;36.03;24.02;;;;;;;;;;6206612;28;20058;-79
2023/04/13 05:12:47;;;;;;;36.97;23.70;;;;;;;;;;6209509;28;20058;-79
2023/04/13 05:15:49;;;;;;;36.67;23.15;;;;;;;;;;6204754;28;20065;-79
2023/04/13 05:18:52;;;;;;;38.22;24.50;;;;;;;;;;6202000;28;20215;-80
2023/04/13 05:21:53;;;;;;;34.55;23.85;;;;;;;;;;6208196;28;20056;-80
2023/04/13 05:24:56;;;;;;;40.22;24.58;;;;;;;;;;6206984;28;20711;-80
2023/04/13 05:27:57;;;;;;;35.97;23.38;;;;;;;;;;6207265;28;20058;-79
2023/04/13 05:31:00;;;;;;;35.28;23.50;;;;;;;;;;6203149;28;20053;-79
2023/04/13 05:34:04;;;;;;;37.13;23.35;;;;;;;;;;6205051;28;20061;-80
2023/04/13 05:37:08;;;;;;;38.13;24.00;;;;;;;;;;6205587;28;20749;-79
2023/04/13 05:40:13;;;;;;;34.00;22.77;;;;;;;;;;6205814;28;20519;-80
2023/04/13 05:43:16;;;;;;;35.83;24.50;;;;;;;;;;6203983;28;20045;-80
2023/04/13 05:46:17;;;;;;;33.03;23.15;;;;;;;;;;6207741;28;20121;-80
2023/04/13 05:49:20;;;;;;;35.33;23.63;;;;;;;;;;6205916;28;20065;-80
2023/04/13 05:52:22;;;;;;;33.83;22.88;;;;;;;;;;6204783;28;20058;-79
2023/04/13 05:55:24;;;;;;;33.60;23.52;;;;;;;;;;6206075;28;20049;-80
2023/04/13 05:58:26;;;;;;;33.05;22.42;;;;;;;;;;6201996;28;20073;-79
2023/04/13 06:01:28;;;;;;;31.70;21.95;;;;;;;;;;6200787;28;20783;-79
2023/04/13 06:04:32;;;;;;;34.63;22.48;;;;;;;;;;6204820;28;20054;-79
2023/04/13 06:07:35;;;;;;;33.97;22.80;;;;;;;;;;6208357;28;20065;-79
2023/04/13 06:10:37;;;;;;;32.92;22.23;;;;;;;;;;6204193;28;20049;-79
2023/04/13 06:13:40;;;;;;;34.25;23.73;;;;;;;;;;6204872;28;20049;-80
2023/04/13 06:16:43;;;;;;;35.58;23.50;;;;;;;;;;6205392;28;20057;-79
2023/04/13 06:19:46;;;;;;;31.23;22.35;;;;;;;;;;6207543;28;20307;-79
2023/04/13 06:22:47;;;;;;;30.73;20.48;;;;;;;;;;6205338;28;20058;-81
2023/04/13 06:25:49;;;;;;;31.27;21.35;;;;;;;;;;6201539;28;20054;-82
2023/04/13 06:28:51;;;;;;;29.50;21.05;;;;;;;;;;6209293;28;20049;-75
2023/04/13 06:31:53;;;;;;;35.40;22.42;;;;;;;;;;6207639;28;20057;-80
2023/04/13 06:34:57;;;;;;;33.95;22.42;;;;;;;;;;6210866;28;20061;-77
2023/04/13 06:41:09;;;;;;;31.33;20.95;;;;;;;;;;6205748;23;19925;-82
2023/04/13 06:44:11;;;;;;;32.80;21.85;;;;;;;;;;6219610;28;20118;-78
2023/04/13 06:47:12;;;;;;;33.75;20.95;;;;;;;;;;6217607;28;20047;-78
2023/04/13 06:50:15;;;;;;;38.38;22.45;;;;;;;;;;6211026;28;20108;-78
2023/04/13 06:53:17;;;;;;;33.50;22.38;;;;;;;;;;6214765;28;20050;-77
2023/04/13 06:56:19;;;;;;;31.90;21.92;;;;;;;;;;6211969;28;20054;-76
2023/04/13 06:59:20;;;;;;;31.70;20.73;;;;;;;;;;6209651;28;20513;-76
2023/04/13 07:02:22;;;;;;;32.40;22.27;;;;;;;;;;6214873;28;20350;-78
2023/04/13 07:05:25;;;;;;;30.48;21.10;;;;;;;;;;6219806;28;20330;-77
2023/04/13 07:08:27;;;;;;;37.65;21.88;;;;;;;;;;6219942;28;20388;-78
2023/04/13 07:11:28;;;;;;;32.97;21.48;;;;;;;;;;6218518;28;20058;-77
2023/04/13 07:14:33;;;;;;;34.25;21.60;;;;;;;;;;6219001;28;20065;-78
2023/04/13 07:17:35;;;;;;;;;;;;;;;;;;6218581;28;20281;-79
2023/04/13 07:20:38;;;;;;;34.53;22.55;;;;;;;;;;6216800;28;19925;-77
2023/04/13 07:23:41;;;;;;;33.05;22.65;;;;;;;;;;6215809;28;20103;-78
2023/04/13 07:26:42;;;;;;;34.22;23.08;;;;;;;;;;6220555;28;20292;-78
2023/04/13 07:29:44;;;;;;;34.00;22.33;;;;;;;;;;6219493;28;20101;-78
2023/04/13 07:32:46;;;;;;;32.40;23.17;;;;;;;;;;6219319;28;20054;-78
2023/04/13 07:35:53;;;;;;;34.50;23.70;;;;;;;;;;6216461;28;20058;-79
2023/04/13 07:38:55;;;;;;;33.58;22.50;;;;;;;;;;6215684;28;20053;-78
2023/04/13 07:41:56;;;;;;;33.78;22.17;;;;;;;;;;6213547;28;20237;-78
2023/04/13 07:44:58;;;;;;;30.77;21.60;;;;;;;;;;6216110;28;20053;-77
2023/04/13 07:47:59;;;;;;;32.45;21.10;;;;;;;;;;6221649;28;20061;-77
2023/04/13 07:51:02;;;;;;;32.45;21.58;;;;;;;;;;6220798;28;20046;-77
2023/04/13 07:54:04;;;;;;;32.28;21.00;;;;;;;;;;6218839;28;20062;-77
2023/04/13 07:57:06;;;;;;;34.80;21.42;;;;;;;;;;6220061;28;20061;-77
2023/04/13 08:00:11;;;;;;;31.33;21.17;;;;;;;;;;6219835;28;20070;-77
2023/04/13 08:03:12;;;;;;;30.70;21.40;;;;;;;;;;6217058;28;20039;-77
2023/04/13 08:06:19;;;;;;;37.38;22.70;;;;;;;;;;6218234;28;20049;-77
2023/04/13 08:09:21;;;;;;;35.00;21.23;;;;;;;;;;6218684;28;20070;-78
2023/04/13 08:12:23;;;;;;;29.85;22.48;;;;;;;;;;6219237;28;20112;-77
2023/04/13 08:15:25;;;;;;;32.30;22.27;;;;;;;;;;6218215;28;20061;-77
2023/04/13 08:18:27;;;;;;;32.22;21.88;;;;;;;;;;6218410;28;20045;-78
2023/04/13 08:21:31;;;;;;;30.77;22.15;;;;;;;;;;6216456;28;20292;-77
2023/04/13 08:24:34;;;;;;;31.30;21.65;;;;;;;;;;6219065;28;20788;-77
2023/04/13 08:27:36;;;;;;;27.95;20.63;;;;;;;;;;6217732;28;20096;-78
2023/04/13 08:30:37;;;;;;;31.45;20.88;;;;;;;;;;6216170;28;20320;-78
2023/04/13 08:33:39;;;;;;;34.53;21.98;;;;;;;;;;6214656;28;20058;-78
2023/04/13 08:36:44;;;;;;;31.58;21.75;;;;;;;;;;6215004;28;20065;-78
2023/04/13 08:39:47;;;;;;;33.42;21.77;;;;;;;;;;6218761;28;20349;-77
2023/04/13 08:42:48;;;;;;;32.83;23.10;;;;;;;;;;6214439;28;20556;-78
2023/04/13 08:45:50;;;;;;;35.65;23.50;;;;;;;;;;6217691;28;20057;-78
2023/04/13 08:48:54;;;;;;;36.65;24.40;;;;;;;;;;6220143;28;20099;-78
2023/04/13 08:51:58;;;;;;;;;;;;;;;;;;6219499;28;20392;-78
2023/04/13 08:55:02;;;;;;;35.75;24.10;;;;;;;;;;6215123;28;20248;-78
2023/04/13 08:58:04;;;;;;;35.70;23.95;;;;;;;;;;6222410;28;20038;-77
2023/04/13 09:01:06;;;;;;;39.20;24.48;;;;;;;;;;6221178;28;20128;-77
2023/04/13 09:04:09;;;;;;;37.55;25.38;;;;;;;;;;6219267;28;20157;-78
2023/04/13 09:07:20;;;;;;;32.78;23.38;;;;;;;;;;6217937;28;20322;-78
2023/04/13 09:10:22;;;;;;;36.38;24.08;;;;;;;;;;6215766;28;20072;-79
2023/04/13 09:13:24;;;;;;;35.17;24.02;;;;;;;;;;6218306;28;20050;-77
2023/04/13 09:16:26;;;;;;;33.97;23.33;;;;;;;;;;6218266;28;20058;-80
2023/04/13 09:19:32;;;;;;;34.20;23.38;;;;;;;;;;6219141;28;20045;-77
2023/04/13 09:22:35;;;;;;;40.42;24.73;;;;;;;;;;6217656;28;20065;-77
2023/04/13 09:25:37;;;;;;;37.55;24.30;;;;;;;;;;6218212;28;20101;-77
2023/04/13 09:28:46;;;;;;;37.83;23.83;;;;;;;;;;6215112;28;20055;-77
2023/04/13 09:31:48;;;;;;;37.42;25.25;;;;;;;;;;6218846;28;20068;-76
2023/04/13 09:35:00;;;;;;;38.75;25.67;;;;;;;;;;6218899;28;20257;-75
2023/04/13 09:38:03;;;;;;;38.28;23.98;;;;;;;;;;6217505;28;20118;-74
2023/04/13 09:41:07;;;;;;;36.85;23.17;;;;;;;;;;6216448;28;20053;-74
2023/04/13 09:44:16;;;;;;;33.10;21.27;;;;;;;;;;6217615;28;20057;-74
2023/04/13 09:47:18;;;;;;;26.83;19.45;;;;;;;;;;6222515;28;20053;-75
2023/04/13 09:50:22;;;;;;;27.17;18.92;;;;;;;;;;6216688;28;20101;-76
2023/04/13 09:53:26;;;;;;;28.00;18.90;;;;;;;;;;6213740;28;20058;-73
2023/04/13 09:56:27;;;;;;;24.30;17.17;;;;;;;;;;6212856;28;20068;-74
2023/04/13 09:59:29;;;;;;;22.50;16.05;;;;;;;;;;6221427;28;20054;-74
2023/04/13 10:02:31;;;;;;;22.65;16.20;;;;;;;;;;6212731;28;20112;-75
2023/04/13 10:05:35;;;;;;;26.52;17.00;;;;;;;;;;6218671;28;20062;-75
2023/04/13 10:08:39;;;;;;;25.10;17.30;;;;;;;;;;6221302;28;20058;-74
2023/04/13 10:11:45;;;;;;;24.42;17.27;;;;;;;;;;6219935;28;20122;-75
2023/04/13 10:14:48;;;;;;;25.20;16.55;;;;;;;;;;6221429;28;20109;-75
2023/04/13 10:17:56;;;;;;;26.20;18.40;;;;;;;;;;6220509;28;20054;-75
2023/04/13 10:20:59;;;;;;;32.17;19.10;;;;;;;;;;6221489;28;20329;-75
2023/04/13 10:24:02;;;;;;;29.60;19.10;;;;;;;;;;6219645;28;20054;-75
2023/04/13 10:27:11;;;;;;;27.73;18.00;;;;;;;;;;6222993;28;20270;-75
2023/04/13 10:30:18;;;;;;;28.65;17.70;;;;;;;;;;6219725;28;20054;-74
2023/04/13 10:33:20;;;;;;;25.73;17.27;;;;;;;;;;6222026;28;20062;-75
2023/04/13 10:36:22;;;;;;;27.98;18.50;;;;;;;;;;6221544;28;20062;-76
2023/04/13 10:39:26;;;;;;;27.85;18.27;;;;;;;;;;6219549;28;20049;-76
2023/04/13 10:42:28;;;;;;;;;;;;;;;;;;6218986;28;20061;-75
2023/04/13 10:45:34;;;;;;;26.48;17.48;;;;;;;;;;6218652;28;19988;-74
2023/04/13 10:48:36;;;;;;;27.75;18.45;;;;;;;;;;6220546;28;20072;-73
2023/04/13 10:51:39;;;;;;;27.85;19.17;;;;;;;;;;6219113;28;20183;-73
2023/04/13 10:54:43;;;;;;;26.52;17.92;;;;;;;;;;6218580;28;20057;-75
2023/04/13 10:57:45;;;;;;;28.95;18.40;;;;;;;;;;6219815;28;20113;-73
2023/04/13 11:00:47;;;;;;;26.83;18.63;;;;;;;;;;6222994;28;20347;-73
2023/04/13 11:03:50;;;;;;;24.95;17.80;;;;;;;;;;6220790;28;20059;-74
2023/04/13 11:06:53;;;;;;;20.48;14.60;;;;;;;;;;6223430;28;20053;-74
2023/04/13 11:09:57;;;;;;;19.00;13.27;;;;;;;;;;6223170;28;20069;-72
2023/04/13 11:12:59;;;;;;;15.30;12.20;;;;;;;;;;6222699;28;20054;-73
2023/04/13 11:16:02;;;;;;;14.80;11.10;;;;;;;;;;6220057;28;20060;-74
2023/04/13 11:19:04;;;;;;;11.50;8.63;;;;;;;;;;6225431;28;20054;-74
2023/04/13 11:22:07;;;;;;;11.73;9.52;;;;;;;;;;6224685;28;20042;-74
2023/04/13 11:25:12;;;;;;;11.90;9.18;;;;;;;;;;6216850;28;20104;-77
2023/04/13 11:28:13;;;;;;;;;;;;;;;;;;6218078;28;20042;-75
2023/04/13 11:31:15;;;;;;;11.13;8.45;;;;;;;;;;6221520;28;19926;-74
2023/04/13 11:34:24;;;;;;;10.52;7.90;;;;;;;;;;6224791;28;20117;-74
2023/04/13 11:37:27;;;;;;;7.80;6.82;;;;;;;;;;6226458;28;20057;-75
2023/04/13 11:40:30;;;;;;;7.90;5.93;;;;;;;;;;6220448;28;20069;-74
2023/04/13 11:43:32;;;;;;;8.68;6.35;;;;;;;;;;6225745;28;20260;-74
2023/04/13 11:46:34;;;;;;;7.97;5.90;;;;;;;;;;6221137;28;20096;-74
2023/04/13 11:49:36;;;;;;;8.45;5.72;;;;;;;;;;6223712;28;20380;-74
2023/04/13 11:52:38;;;;;;;7.82;5.53;;;;;;;;;;6224859;28;20050;-75
2023/04/13 11:55:41;;;;;;;8.43;5.82;;;;;;;;;;6223924;28;20060;-75
2023/04/13 11:58:42;;;;;;;7.05;5.13;;;;;;;;;;6223818;28;20263;-74
2023/04/13 12:01:48;;;;;;;6.63;4.43;;;;;;;;;;6221854;28;20116;-75
2023/04/13 12:04:50;;;;;;;5.13;3.55;;;;;;;;;;6223665;28;20061;-75
2023/04/13 12:07:53;;;;;;;3.75;3.08;;;;;;;;;;6223256;28;20089;-75
2023/04/13 12:10:58;;;;;;;4.43;3.27;;;;;;;;;;6223608;28;20046;-75
2023/04/13 12:13:59;;;;;;;3.72;2.58;;;;;;;;;;6222507;28;20111;-74
2023/04/13 12:17:01;;;;;;;1.90;1.70;;;;;;;;;;6222453;28;20226;-75
2023/04/13 12:20:03;;;;;;;3.00;1.58;;;;;;;;;;6222178;28;20125;-74
2023/04/13 12:23:05;;;;;;;1.73;1.23;;;;;;;;;;6224566;28;20050;-75
2023/04/13 12:26:08;;;;;;;2.55;1.15;;;;;;;;;;6223728;28;20250;-75
2023/04/13 12:29:10;;;;;;;2.20;1.10;;;;;;;;;;6221555;28;20042;-75
2023/04/13 12:32:13;;;;;;;2.03;1.00;;;;;;;;;;6226398;28;20111;-75
2023/04/13 12:35:18;;;;;;;1.33;0.60;;;;;;;;;;6217277;28;20401;-75
2023/04/13 12:38:19;;;;;;;0.73;0.68;;;;;;;;;;6222895;28;20062;-75
2023/04/13 12:41:22;;;;;;;1.05;0.70;;;;;;;;;;6222229;28;20054;-75
2023/04/13 12:44:24;;;;;;;1.77;0.70;;;;;;;;;;6222042;28;20054;-75
2023/04/13 12:47:26;;;;;;;1.58;0.70;;;;;;;;;;6221140;28;20058;-75
2023/04/13 12:50:27;;;;;;;0.93;0.60;;;;;;;;;;6217667;28;20226;-76
2023/04/13 12:53:29;;;;;;;1.67;0.68;;;;;;;;;;6217035;28;20054;-75
2023/04/13 12:56:32;;;;;;;0.65;0.47;;;;;;;;;;6212947;28;20108;-76
2023/04/13 12:59:34;;;;;;;1.25;0.50;;;;;;;;;;6221465;28;20872;-74
2023/04/13 13:02:36;;;;;;;1.13;0.60;;;;;;;;;;6217341;28;20359;-75
2023/04/13 13:05:37;;;;;;;0.85;0.50;;;;;;;;;;6218337;28;20236;-74
2023/04/13 13:08:39;;;;;;;3.78;0.80;;;;;;;;;;6218059;28;20061;-75
2023/04/13 13:11:42;;;;;;;1.58;0.70;;;;;;;;;;6221179;28;20170;-73
2023/04/13 13:14:44;;;;;;;0.98;0.60;;;;;;;;;;6215671;28;20054;-73
2023/04/13 13:17:45;;;;;;;1.63;0.63;;;;;;;;;;6214918;28;20121;-73
2023/04/13 13:20:48;;;;;;;4.72;0.70;;;;;;;;;;6212219;28;20054;-73
2023/04/13 13:23:49;;;;;;;0.75;0.50;;;;;;;;;;6216760;28;20050;-74
2023/04/13 13:26:53;;;;;;;3.85;0.60;;;;;;;;;;6215500;28;20081;-73
2023/04/13 13:29:56;;;;;;;2.10;0.30;;;;;;;;;;6216069;28;20058;-73
2023/04/13 13:32:57;;;;;;;0.60;0.20;;;;;;;;;;6219021;28;20342;-73
2023/04/13 13:35:59;;;;;;;2.28;0.20;;;;;;;;;;6194011;28;20105;-73
2023/04/13 13:39:00;;;;;;;3.10;0.40;;;;;;;;;;6215465;28;20142;-73
2023/04/13 13:42:04;;;;;;;2.08;0.50;;;;;;;;;;6216059;28;20132;-74
2023/04/13 13:45:07;;;;;;;0.93;0.60;;;;;;;;;;6215050;28;20121;-74
2023/04/13 13:48:08;;;;;;;1.63;0.70;;;;;;;;;;6221373;28;20469;-74
2023/04/13 13:51:10;;;;;;;0.30;0.13;;;;;;;;;;6216325;28;20058;-77
2023/04/13 13:54:12;;;;;;;2.10;0.80;;;;;;;;;;6215875;28;20081;-74
2023/04/13 13:57:16;;;;;;;1.65;0.50;;;;;;;;;;6215793;28;20050;-75
2023/04/13 14:00:18;;;;;;;1.20;0.60;;;;;;;;;;6216628;28;20053;-75
2023/04/13 14:03:20;;;;;;;5.10;0.40;;;;;;;;;;6215466;28;20081;-75
2023/04/13 14:06:22;;;;;;;1.80;0.22;;;;;;;;;;6215237;28;20058;-74
2023/04/13 14:09:24;;;;;;;0.65;0.30;;;;;;;;;;6216355;28;20121;-74
2023/04/13 14:12:28;;;;;;;0.65;0.43;;;;;;;;;;6214371;28;20053;-74
2023/04/13 14:15:30;;;;;;;4.50;0.40;;;;;;;;;;6212503;28;20045;-74
2023/04/13 14:18:31;;;;;;;1.10;0.50;;;;;;;;;;6213564;28;20046;-74
2023/04/13 14:21:33;;;;;;;1.58;0.68;;;;;;;;;;6212965;28;20062;-74
2023/04/13 14:24:35;;;;;;;1.98;0.80;;;;;;;;;;6215258;28;20053;-75
2023/04/13 14:27:38;;;;;;;4.43;0.75;;;;;;;;;;6217824;28;20392;-74
2023/04/13 14:30:40;;;;;;;0.63;0.30;;;;;;;;;;6214311;28;20254;-74
2023/04/13 14:33:42;;;;;;;3.90;0.70;;;;;;;;;;6213440;28;20137;-74
2023/04/13 14:36:44;;;;;;;1.52;0.45;;;;;;;;;;6215186;28;20655;-75
2023/04/13 14:39:46;;;;;;;1.35;0.40;;;;;;;;;;6214888;28;20278;-74
2023/04/13 14:42:53;;;;;;;1.10;0.50;;;;;;;;;;6218371;28;20054;-75
2023/04/13 14:45:55;;;;;;;0.95;0.40;;;;;;;;;;6215040;28;20054;-75
2023/04/13 14:48:57;;;;;;;1.02;0.60;;;;;;;;;;6211853;28;20124;-74
2023/04/13 14:51:58;;;;;;;1.45;0.40;;;;;;;;;;6217340;28;20054;-74
2023/04/13 14:55:00;;;;;;;0.30;0.13;;;;;;;;;;6222193;28;20136;-74
2023/04/13 14:58:04;;;;;;;3.10;0.63;;;;;;;;;;6217785;28;20065;-74
2023/04/13 15:01:15;;;;;;;1.23;0.40;;;;;;;;;;6220327;28;20065;-75
2023/04/13 15:04:17;;;;;;;1.15;0.88;;;;;;;;;;6218394;28;20080;-76
2023/04/13 15:07:20;;;;;;;0.95;0.50;;;;;;;;;;6218439;28;20061;-74
2023/04/13 15:10:22;;;;;;;1.27;0.70;;;;;;;;;;6217671;28;20211;-73
2023/04/13 15:13:25;;;;;;;0.50;0.25;;;;;;;;;;6220075;28;20224;-74
2023/04/13 15:16:27;;;;;;;428.73;268.65;;;;;;;;;;6221276;28;20152;-77
2023/04/13 15:19:28;;;;;;;45.97;26.27;;;;;;;;;;6220993;28;20054;-77
2023/04/13 15:22:30;;;;;;;2.65;1.30;;;;;;;;;;6219263;28;20113;-74
2023/04/13 15:25:32;;;;;;;1.05;0.30;;;;;;;;;;6220743;28;20054;-74
2023/04/13 15:28:37;;;;;;;0.88;0.50;;;;;;;;;;6218950;28;20057;-74
2023/04/13 15:31:39;;;;;;;0.40;0.28;;;;;;;;;;6224866;28;20188;-74
2023/04/13 15:34:40;;;;;;;0.80;0.52;;;;;;;;;;6218985;28;20333;-74
2023/04/13 15:37:42;;;;;;;1.25;0.47;;;;;;;;;;6220921;28;20317;-74
2023/04/13 15:40:43;;;;;;;3.13;1.27;;;;;;;;;;6219706;28;20243;-73
2023/04/13 15:43:46;;;;;;;4.60;1.85;;;;;;;;;;6221379;28;20112;-75
2023/04/13 15:46:48;;;;;;;2.08;0.70;;;;;;;;;;6220555;28;20088;-74
2023/04/13 15:49:49;;;;;;;0.82;0.30;;;;;;;;;;6220233;28;20057;-73
2023/04/13 15:52:51;;;;;;;1.08;0.50;;;;;;;;;;6222616;28;20054;-74
2023/04/13 15:55:53;;;;;;;1.30;0.47;;;;;;;;;;6216681;28;20083;-75
2023/04/13 15:58:56;;;;;;;0.82;0.30;;;;;;;;;;6217885;28;20061;-74
2023/04/13 16:01:59;;;;;;;0.60;0.40;;;;;;;;;;6218473;28;20804;-73
2023/04/13 16:05:00;;;;;;;1.70;1.00;;;;;;;;;;6214058;28;20049;-73
2023/04/13 16:08:02;;;;;;;1.60;0.57;;;;;;;;;;6222992;28;21173;-74
2023/04/13 16:11:04;;;;;;;0.70;0.50;;;;;;;;;;6222724;28;20286;-73
2023/04/13 16:14:07;;;;;;;1.33;0.32;;;;;;;;;;6219194;28;20077;-74
2023/04/13 16:17:09;;;;;;;2.17;0.50;;;;;;;;;;6216723;28;20181;-74
2023/04/13 16:20:18;;;;;;;0.80;0.35;;;;;;;;;;6216416;28;20046;-73
2023/04/13 16:23:20;;;;;;;0.77;0.70;;;;;;;;;;6207546;28;20072;-73
2023/04/13 16:26:21;;;;;;;0.70;0.40;;;;;;;;;;6217321;28;20136;-73
2023/04/13 16:29:25;;;;;;;2.17;0.30;;;;;;;;;;6216334;28;20069;-73
2023/04/13 16:32:27;;;;;;;1.08;0.50;;;;;;;;;;6217083;28;20536;-73
2023/04/13 16:35:28;;;;;;;1.98;0.70;;;;;;;;;;6215008;28;20054;-73
2023/04/13 16:38:30;;;;;;;1.02;0.43;;;;;;;;;;6214805;28;20050;-73
2023/04/13 16:41:31;;;;;;;1.00;0.50;;;;;;;;;;6214978;28;20061;-73
2023/04/13 16:44:34;;;;;;;0.85;0.50;;;;;;;;;;6215165;28;20798;-74
2023/04/13 16:47:37;;;;;;;1.48;0.50;;;;;;;;;;6215545;28;20053;-73
2023/04/13 16:50:39;;;;;;;0.70;0.50;;;;;;;;;;6216148;28;20416;-74
2023/04/13 16:53:42;;;;;;;3.38;0.63;;;;;;;;;;6216012;28;20610;-73
2023/04/13 16:56:45;;;;;;;2.78;0.30;;;;;;;;;;6213578;28;20097;-73
2023/04/13 16:59:48;;;;;;;2.95;0.47;;;;;;;;;;6215491;28;20121;-72
2023/04/13 17:02:49;;;;;;;1.45;0.40;;;;;;;;;;6216156;28;20046;-73
2023/04/13 17:05:51;;;;;;;2.05;0.40;;;;;;;;;;6220313;28;20424;-73
2023/04/13 17:08:53;;;;;;;3.17;0.30;;;;;;;;;;6219007;28;20050;-74
2023/04/13 17:11:55;;;;;;;1.23;0.30;;;;;;;;;;6221518;28;20123;-72
2023/04/13 17:14:59;;;;;;;0.82;0.20;;;;;;;;;;6215449;28;20360;-74
2023/04/13 17:18:01;;;;;;;0.90;0.40;;;;;;;;;;6225058;28;20104;-74
2023/04/13 17:21:03;;;;;;;0.68;0.17;;;;;;;;;;6222175;28;20097;-72
2023/04/13 17:24:05;;;;;;;1.00;0.60;;;;;;;;;;6224150;28;20054;-72
2023/04/13 17:27:07;;;;;;;2.35;0.50;;;;;;;;;;6220125;28;20054;-72
2023/04/13 17:30:10;;;;;;;1.00;0.40;;;;;;;;;;6219425;28;20061;-72
2023/04/13 17:33:12;;;;;;;3.10;0.30;;;;;;;;;;6218880;28;20053;-72
2023/04/13 17:36:14;;;;;;;1.27;0.57;;;;;;;;;;6217938;28;20065;-73
2023/04/13 17:39:15;;;;;;;0.60;0.30;;;;;;;;;;6210612;28;20322;-73
2023/04/13 17:42:17;;;;;;;1.95;0.60;;;;;;;;;;6195362;28;20050;-73
2023/04/13 17:45:21;;;;;;;0.65;0.40;;;;;;;;;;6193957;28;20054;-73
2023/04/13 17:48:22;;;;;;;0.77;0.40;;;;;;;;;;6198153;28;20058;-73
2023/04/13 17:51:25;;;;;;;1.10;0.52;;;;;;;;;;6196915;28;20055;-73
2023/04/13 17:54:26;;;;;;;0.77;0.40;;;;;;;;;;6191117;28;20043;-73
2023/04/13 17:57:29;;;;;;;1.50;0.52;;;;;;;;;;6196804;28;20054;-76
2023/04/13 18:00:33;;;;;;;2.03;0.50;;;;;;;;;;6199670;28;20054;-75